sensor_id;sensor_type;location;lat;lon;timestamp;P1;durP1;ratioP1;P2;durP2;ratioP2
72319;SDS011;60269;52.502;16.732;2022-07-05T00:00:57;6.70;;;2.63;;
72319;SDS011;60269;52.502;16.732;2022-07-05T00:04:29;7.88;;;2.60;;
72319;SDS011;60269;52.502;16.732;2022-07-05T00:08:00;7.47;;;2.90;;
72319;SDS011;60269;52.502;16.732;2022-07-05T00:11:32;6.60;;;3.08;;
72319;SDS011;60269;52.502;16.732;2022-07-05T00:15:04;6.93;;;2.60;;
72319;SDS011;60269;52.502;16.732;2022-07-05T00:18:36;8.53;;;3.17;;
72319;SDS011;60269;52.502;16.732;2022-07-05T00:22:08;6.72;;;3.13;;
72319;SDS011;60269;52.502;16.732;2022-07-05T00:25:40;6.65;;;2.67;;
72319;SDS011;60269;52.502;16.732;2022-07-05T00:29:12;6.47;;;2.72;;
72319;SDS011;60269;52.502;16.732;2022-07-05T00:32:44;6.80;;;2.90;;
72319;SDS011;60269;52.502;16.732;2022-07-05T00:36:16;6.60;;;2.67;;
72319;SDS011;60269;52.502;16.732;2022-07-05T00:39:48;7.53;;;2.97;;
72319;SDS011;60269;52.502;16.732;2022-07-05T00:43:20;8.45;;;2.33;;
72319;SDS011;60269;52.502;16.732;2022-07-05T00:46:51;6.60;;;2.53;;
72319;SDS011;60269;52.502;16.732;2022-07-05T00:50:23;8.97;;;2.90;;
72319;SDS011;60269;52.502;16.732;2022-07-05T00:53:55;8.57;;;2.60;;
72319;SDS011;60269;52.502;16.732;2022-07-05T00:57:27;9.45;;;3.30;;
72319;SDS011;60269;52.502;16.732;2022-07-05T01:01:00;8.20;;;2.97;;
72319;SDS011;60269;52.502;16.732;2022-07-05T01:04:34;9.07;;;2.70;;
72319;SDS011;60269;52.502;16.732;2022-07-05T01:08:06;10.73;;;3.50;;
72319;SDS011;60269;52.502;16.732;2022-07-05T01:11:47;9.10;;;3.67;;
72319;SDS011;60269;52.502;16.732;2022-07-05T01:15:20;8.63;;;3.58;;
72319;SDS011;60269;52.502;16.732;2022-07-05T01:18:53;7.65;;;3.33;;
72319;SDS011;60269;52.502;16.732;2022-07-05T01:22:26;7.32;;;2.70;;
72319;SDS011;60269;52.502;16.732;2022-07-05T01:25:59;7.30;;;2.60;;
72319;SDS011;60269;52.502;16.732;2022-07-05T01:29:32;9.17;;;3.50;;
72319;SDS011;60269;52.502;16.732;2022-07-05T01:33:05;9.10;;;4.22;;
72319;SDS011;60269;52.502;16.732;2022-07-05T01:36:37;9.63;;;4.07;;
72319;SDS011;60269;52.502;16.732;2022-07-05T01:40:10;9.38;;;4.43;;
72319;SDS011;60269;52.502;16.732;2022-07-05T01:43:42;7.40;;;3.63;;
72319;SDS011;60269;52.502;16.732;2022-07-05T01:47:14;9.53;;;4.07;;
72319;SDS011;60269;52.502;16.732;2022-07-05T01:50:48;9.07;;;3.60;;
72319;SDS011;60269;52.502;16.732;2022-07-05T01:54:22;7.53;;;3.55;;
72319;SDS011;60269;52.502;16.732;2022-07-05T01:57:54;11.07;;;4.18;;
72319;SDS011;60269;52.502;16.732;2022-07-05T02:01:33;9.30;;;4.00;;
72319;SDS011;60269;52.502;16.732;2022-07-05T02:05:05;8.90;;;4.50;;
72319;SDS011;60269;52.502;16.732;2022-07-05T02:08:37;9.93;;;3.70;;
72319;SDS011;60269;52.502;16.732;2022-07-05T02:12:10;9.93;;;3.72;;
72319;SDS011;60269;52.502;16.732;2022-07-05T02:15:42;8.30;;;3.65;;
72319;SDS011;60269;52.502;16.732;2022-07-05T02:19:13;8.80;;;4.00;;
72319;SDS011;60269;52.502;16.732;2022-07-05T02:22:45;8.87;;;4.50;;
72319;SDS011;60269;52.502;16.732;2022-07-05T02:26:17;14.57;;;4.82;;
72319;SDS011;60269;52.502;16.732;2022-07-05T02:29:49;11.27;;;4.68;;
72319;SDS011;60269;52.502;16.732;2022-07-05T02:33:21;11.43;;;4.97;;
72319;SDS011;60269;52.502;16.732;2022-07-05T02:36:52;10.20;;;4.30;;
72319;SDS011;60269;52.502;16.732;2022-07-05T02:40:24;10.97;;;4.63;;
72319;SDS011;60269;52.502;16.732;2022-07-05T02:43:56;8.75;;;4.50;;
72319;SDS011;60269;52.502;16.732;2022-07-05T02:47:31;9.85;;;4.88;;
72319;SDS011;60269;52.502;16.732;2022-07-05T02:51:04;9.32;;;4.18;;
72319;SDS011;60269;52.502;16.732;2022-07-05T02:54:37;10.40;;;4.87;;
72319;SDS011;60269;52.502;16.732;2022-07-05T02:58:11;8.97;;;4.47;;
72319;SDS011;60269;52.502;16.732;2022-07-05T03:01:43;8.68;;;3.53;;
72319;SDS011;60269;52.502;16.732;2022-07-05T03:05:15;9.35;;;5.32;;
72319;SDS011;60269;52.502;16.732;2022-07-05T03:08:47;10.13;;;5.18;;
72319;SDS011;60269;52.502;16.732;2022-07-05T03:12:18;8.60;;;4.63;;
72319;SDS011;60269;52.502;16.732;2022-07-05T03:15:50;11.50;;;4.23;;
72319;SDS011;60269;52.502;16.732;2022-07-05T03:19:22;8.15;;;3.83;;
72319;SDS011;60269;52.502;16.732;2022-07-05T03:22:54;8.02;;;3.45;;
72319;SDS011;60269;52.502;16.732;2022-07-05T03:26:25;8.35;;;4.15;;
72319;SDS011;60269;52.502;16.732;2022-07-05T03:29:57;10.37;;;4.60;;
72319;SDS011;60269;52.502;16.732;2022-07-05T03:33:29;11.03;;;4.67;;
72319;SDS011;60269;52.502;16.732;2022-07-05T03:37:01;19.23;;;4.22;;
72319;SDS011;60269;52.502;16.732;2022-07-05T03:40:33;10.25;;;4.25;;
72319;SDS011;60269;52.502;16.732;2022-07-05T03:44:04;17.50;;;4.63;;
72319;SDS011;60269;52.502;16.732;2022-07-05T03:47:36;10.80;;;4.50;;
72319;SDS011;60269;52.502;16.732;2022-07-05T03:51:08;10.93;;;4.53;;
72319;SDS011;60269;52.502;16.732;2022-07-05T03:54:40;11.38;;;4.70;;
72319;SDS011;60269;52.502;16.732;2022-07-05T03:58:12;9.07;;;4.60;;
72319;SDS011;60269;52.502;16.732;2022-07-05T04:01:44;9.52;;;4.78;;
72319;SDS011;60269;52.502;16.732;2022-07-05T04:05:15;11.63;;;4.23;;
72319;SDS011;60269;52.502;16.732;2022-07-05T04:08:47;11.43;;;4.30;;
72319;SDS011;60269;52.502;16.732;2022-07-05T04:12:19;9.05;;;4.47;;
72319;SDS011;60269;52.502;16.732;2022-07-05T04:15:51;7.57;;;3.75;;
72319;SDS011;60269;52.502;16.732;2022-07-05T04:19:24;8.73;;;4.30;;
72319;SDS011;60269;52.502;16.732;2022-07-05T04:22:56;11.40;;;4.63;;
72319;SDS011;60269;52.502;16.732;2022-07-05T04:26:28;8.90;;;3.97;;
72319;SDS011;60269;52.502;16.732;2022-07-05T04:30:00;9.32;;;3.83;;
72319;SDS011;60269;52.502;16.732;2022-07-05T04:33:32;9.75;;;4.97;;
72319;SDS011;60269;52.502;16.732;2022-07-05T04:37:04;9.75;;;4.30;;
72319;SDS011;60269;52.502;16.732;2022-07-05T04:40:36;10.87;;;3.80;;
72319;SDS011;60269;52.502;16.732;2022-07-05T04:44:08;8.87;;;4.20;;
72319;SDS011;60269;52.502;16.732;2022-07-05T04:47:40;9.60;;;4.60;;
72319;SDS011;60269;52.502;16.732;2022-07-05T04:51:11;8.40;;;5.18;;
72319;SDS011;60269;52.502;16.732;2022-07-05T04:54:43;7.82;;;4.32;;
72319;SDS011;60269;52.502;16.732;2022-07-05T04:58:15;10.33;;;4.73;;
72319;SDS011;60269;52.502;16.732;2022-07-05T05:01:47;9.37;;;4.63;;
72319;SDS011;60269;52.502;16.732;2022-07-05T05:05:19;9.27;;;4.25;;
72319;SDS011;60269;52.502;16.732;2022-07-05T05:08:51;11.35;;;5.30;;
72319;SDS011;60269;52.502;16.732;2022-07-05T05:12:23;11.60;;;5.10;;
72319;SDS011;60269;52.502;16.732;2022-07-05T05:15:55;9.83;;;5.03;;
72319;SDS011;60269;52.502;16.732;2022-07-05T05:19:27;8.27;;;4.40;;
72319;SDS011;60269;52.502;16.732;2022-07-05T05:22:59;7.70;;;4.10;;
72319;SDS011;60269;52.502;16.732;2022-07-05T05:26:30;8.07;;;4.07;;
72319;SDS011;60269;52.502;16.732;2022-07-05T05:30:02;6.63;;;3.55;;
72319;SDS011;60269;52.502;16.732;2022-07-05T05:33:34;9.07;;;3.50;;
72319;SDS011;60269;52.502;16.732;2022-07-05T05:37:06;9.13;;;3.30;;
72319;SDS011;60269;52.502;16.732;2022-07-05T05:40:38;7.72;;;2.88;;
72319;SDS011;60269;52.502;16.732;2022-07-05T05:44:12;6.38;;;2.75;;
72319;SDS011;60269;52.502;16.732;2022-07-05T05:47:45;5.80;;;1.80;;
72319;SDS011;60269;52.502;16.732;2022-07-05T05:51:17;6.50;;;2.33;;
72319;SDS011;60269;52.502;16.732;2022-07-05T05:54:49;7.83;;;2.27;;
72319;SDS011;60269;52.502;16.732;2022-07-05T05:58:21;13.32;;;3.05;;
72319;SDS011;60269;52.502;16.732;2022-07-05T06:01:55;9.10;;;3.03;;
72319;SDS011;60269;52.502;16.732;2022-07-05T06:05:27;6.60;;;3.00;;
72319;SDS011;60269;52.502;16.732;2022-07-05T06:08:58;6.07;;;2.43;;
72319;SDS011;60269;52.502;16.732;2022-07-05T06:12:30;6.53;;;2.90;;
72319;SDS011;60269;52.502;16.732;2022-07-05T06:16:02;8.85;;;2.60;;
72319;SDS011;60269;52.502;16.732;2022-07-05T06:19:34;5.45;;;2.00;;
72319;SDS011;60269;52.502;16.732;2022-07-05T06:23:06;9.50;;;2.38;;
72319;SDS011;60269;52.502;16.732;2022-07-05T06:26:38;8.47;;;2.50;;
72319;SDS011;60269;52.502;16.732;2022-07-05T06:30:12;7.67;;;2.13;;
72319;SDS011;60269;52.502;16.732;2022-07-05T06:33:45;5.35;;;1.92;;
72319;SDS011;60269;52.502;16.732;2022-07-05T06:37:17;8.30;;;2.40;;
72319;SDS011;60269;52.502;16.732;2022-07-05T06:40:49;4.45;;;2.10;;
72319;SDS011;60269;52.502;16.732;2022-07-05T06:44:20;5.37;;;2.23;;
72319;SDS011;60269;52.502;16.732;2022-07-05T06:48:08;6.73;;;2.60;;
72319;SDS011;60269;52.502;16.732;2022-07-05T06:51:41;6.70;;;2.70;;
72319;SDS011;60269;52.502;16.732;2022-07-05T06:55:13;5.20;;;2.47;;
72319;SDS011;60269;52.502;16.732;2022-07-05T06:58:47;6.95;;;2.65;;
72319;SDS011;60269;52.502;16.732;2022-07-05T07:02:38;6.63;;;2.23;;
72319;SDS011;60269;52.502;16.732;2022-07-05T07:06:10;5.00;;;2.10;;
72319;SDS011;60269;52.502;16.732;2022-07-05T07:09:42;6.53;;;2.20;;
72319;SDS011;60269;52.502;16.732;2022-07-05T07:13:15;4.97;;;2.03;;
72319;SDS011;60269;52.502;16.732;2022-07-05T07:16:46;7.35;;;2.05;;
72319;SDS011;60269;52.502;16.732;2022-07-05T07:20:18;6.07;;;2.07;;
72319;SDS011;60269;52.502;16.732;2022-07-05T07:23:50;6.23;;;1.90;;
72319;SDS011;60269;52.502;16.732;2022-07-05T07:27:22;5.20;;;1.70;;
72319;SDS011;60269;52.502;16.732;2022-07-05T07:30:54;4.28;;;1.83;;
72319;SDS011;60269;52.502;16.732;2022-07-05T07:34:27;3.35;;;1.10;;
72319;SDS011;60269;52.502;16.732;2022-07-05T07:37:59;4.57;;;1.40;;
72319;SDS011;60269;52.502;16.732;2022-07-05T07:41:31;5.13;;;1.40;;
72319;SDS011;60269;52.502;16.732;2022-07-05T07:45:03;2.67;;;0.95;;
72319;SDS011;60269;52.502;16.732;2022-07-05T07:48:36;2.92;;;1.10;;
72319;SDS011;60269;52.502;16.732;2022-07-05T07:52:07;4.65;;;1.20;;
72319;SDS011;60269;52.502;16.732;2022-07-05T07:55:39;5.37;;;1.50;;
72319;SDS011;60269;52.502;16.732;2022-07-05T07:59:11;4.10;;;1.57;;
72319;SDS011;60269;52.502;16.732;2022-07-05T08:02:43;3.70;;;1.17;;
72319;SDS011;60269;52.502;16.732;2022-07-05T08:06:15;3.67;;;1.50;;
72319;SDS011;60269;52.502;16.732;2022-07-05T08:09:47;10.48;;;2.25;;
72319;SDS011;60269;52.502;16.732;2022-07-05T08:13:18;5.33;;;1.63;;
72319;SDS011;60269;52.502;16.732;2022-07-05T08:16:51;4.37;;;1.70;;
72319;SDS011;60269;52.502;16.732;2022-07-05T08:20:23;4.88;;;1.98;;
72319;SDS011;60269;52.502;16.732;2022-07-05T08:24:14;5.45;;;1.77;;
72319;SDS011;60269;52.502;16.732;2022-07-05T08:27:46;7.10;;;1.80;;
72319;SDS011;60269;52.502;16.732;2022-07-05T08:31:18;5.43;;;1.60;;
72319;SDS011;60269;52.502;16.732;2022-07-05T08:34:50;5.07;;;1.70;;
72319;SDS011;60269;52.502;16.732;2022-07-05T08:38:22;11.30;;;2.38;;
72319;SDS011;60269;52.502;16.732;2022-07-05T08:41:54;5.97;;;2.05;;
72319;SDS011;60269;52.502;16.732;2022-07-05T08:45:27;2.45;;;1.00;;
72319;SDS011;60269;52.502;16.732;2022-07-05T08:49:01;5.23;;;1.60;;
72319;SDS011;60269;52.502;16.732;2022-07-05T08:52:42;4.80;;;1.63;;
72319;SDS011;60269;52.502;16.732;2022-07-05T08:56:14;4.10;;;1.35;;
72319;SDS011;60269;52.502;16.732;2022-07-05T09:00:00;5.25;;;1.45;;
72319;SDS011;60269;52.502;16.732;2022-07-05T09:03:39;4.85;;;1.83;;
72319;SDS011;60269;52.502;16.732;2022-07-05T09:07:20;3.10;;;1.10;;
72319;SDS011;60269;52.502;16.732;2022-07-05T09:10:54;4.83;;;1.40;;
72319;SDS011;60269;52.502;16.732;2022-07-05T09:14:26;7.60;;;1.58;;
72319;SDS011;60269;52.502;16.732;2022-07-05T09:17:59;3.42;;;1.35;;
72319;SDS011;60269;52.502;16.732;2022-07-05T09:21:32;4.85;;;0.88;;
72319;SDS011;60269;52.502;16.732;2022-07-05T09:25:17;4.10;;;1.10;;
72319;SDS011;60269;52.502;16.732;2022-07-05T09:28:54;2.93;;;0.90;;
72319;SDS011;60269;52.502;16.732;2022-07-05T09:32:27;3.67;;;1.42;;
72319;SDS011;60269;52.502;16.732;2022-07-05T09:36:01;3.10;;;1.20;;
72319;SDS011;60269;52.502;16.732;2022-07-05T09:43:19;4.70;;;1.20;;
72319;SDS011;60269;52.502;16.732;2022-07-05T09:47:06;3.20;;;1.13;;
72319;SDS011;60269;52.502;16.732;2022-07-05T09:50:38;3.70;;;1.55;;
72319;SDS011;60269;52.502;16.732;2022-07-05T09:54:30;4.35;;;1.45;;
72319;SDS011;60269;52.502;16.732;2022-07-05T09:58:02;4.10;;;2.00;;
72319;SDS011;60269;52.502;16.732;2022-07-05T10:01:34;2.40;;;1.33;;
72319;SDS011;60269;52.502;16.732;2022-07-05T10:08:43;3.22;;;1.02;;
72319;SDS011;60269;52.502;16.732;2022-07-05T10:12:16;9.60;;;1.48;;
72319;SDS011;60269;52.502;16.732;2022-07-05T10:15:48;3.53;;;1.20;;
72319;SDS011;60269;52.502;16.732;2022-07-05T10:19:21;7.93;;;1.97;;
72319;SDS011;60269;52.502;16.732;2022-07-05T10:22:52;6.60;;;1.57;;
72319;SDS011;60269;52.502;16.732;2022-07-05T10:26:25;5.28;;;1.73;;
72319;SDS011;60269;52.502;16.732;2022-07-05T10:30:01;3.17;;;1.42;;
72319;SDS011;60269;52.502;16.732;2022-07-05T10:33:35;3.95;;;1.45;;
72319;SDS011;60269;52.502;16.732;2022-07-05T10:37:07;3.73;;;1.00;;
72319;SDS011;60269;52.502;16.732;2022-07-05T10:40:40;6.15;;;1.80;;
72319;SDS011;60269;52.502;16.732;2022-07-05T10:44:25;4.18;;;1.42;;
72319;SDS011;60269;52.502;16.732;2022-07-05T10:48:23;5.38;;;1.38;;
72319;SDS011;60269;52.502;16.732;2022-07-05T10:51:56;5.33;;;1.43;;
72319;SDS011;60269;52.502;16.732;2022-07-05T10:55:28;3.30;;;1.10;;
72319;SDS011;60269;52.502;16.732;2022-07-05T10:59:04;3.83;;;1.50;;
72319;SDS011;60269;52.502;16.732;2022-07-05T11:02:41;3.33;;;1.08;;
72319;SDS011;60269;52.502;16.732;2022-07-05T11:06:23;3.42;;;1.08;;
72319;SDS011;60269;52.502;16.732;2022-07-05T11:09:58;2.73;;;0.93;;
72319;SDS011;60269;52.502;16.732;2022-07-05T11:13:37;5.05;;;1.35;;
72319;SDS011;60269;52.502;16.732;2022-07-05T11:17:13;3.33;;;1.45;;
72319;SDS011;60269;52.502;16.732;2022-07-05T11:21:21;2.60;;;1.00;;
72319;SDS011;60269;52.502;16.732;2022-07-05T11:24:54;3.90;;;1.00;;
72319;SDS011;60269;52.502;16.732;2022-07-05T11:28:27;3.23;;;1.67;;
72319;SDS011;60269;52.502;16.732;2022-07-05T11:32:15;3.55;;;1.48;;
72319;SDS011;60269;52.502;16.732;2022-07-05T11:35:54;4.85;;;2.00;;
72319;SDS011;60269;52.502;16.732;2022-07-05T11:39:27;11.15;;;1.27;;
72319;SDS011;60269;52.502;16.732;2022-07-05T11:42:59;5.80;;;1.95;;
72319;SDS011;60269;52.502;16.732;2022-07-05T11:46:32;4.50;;;1.17;;
72319;SDS011;60269;52.502;16.732;2022-07-05T11:50:25;4.13;;;1.27;;
72319;SDS011;60269;52.502;16.732;2022-07-05T11:53:58;4.55;;;2.35;;
72319;SDS011;60269;52.502;16.732;2022-07-05T11:57:49;3.75;;;1.65;;
72319;SDS011;60269;52.502;16.732;2022-07-05T12:01:22;4.40;;;1.43;;
72319;SDS011;60269;52.502;16.732;2022-07-05T12:04:55;3.67;;;1.20;;
72319;SDS011;60269;52.502;16.732;2022-07-05T12:08:28;3.33;;;1.00;;
72319;SDS011;60269;52.502;16.732;2022-07-05T12:12:01;3.55;;;1.20;;
72319;SDS011;60269;52.502;16.732;2022-07-05T12:15:58;4.28;;;0.95;;
72319;SDS011;60269;52.502;16.732;2022-07-05T12:19:31;3.90;;;1.50;;
72319;SDS011;60269;52.502;16.732;2022-07-05T12:23:03;5.33;;;1.60;;
72319;SDS011;60269;52.502;16.732;2022-07-05T12:26:36;3.00;;;1.35;;
72319;SDS011;60269;52.502;16.732;2022-07-05T12:30:09;4.10;;;1.75;;
72319;SDS011;60269;52.502;16.732;2022-07-05T12:33:42;4.72;;;2.00;;
72319;SDS011;60269;52.502;16.732;2022-07-05T12:37:23;3.70;;;2.03;;
72319;SDS011;60269;52.502;16.732;2022-07-05T12:40:56;3.93;;;1.60;;
72319;SDS011;60269;52.502;16.732;2022-07-05T12:44:29;4.13;;;1.90;;
72319;SDS011;60269;52.502;16.732;2022-07-05T12:48:02;4.50;;;2.50;;
72319;SDS011;60269;52.502;16.732;2022-07-05T12:51:36;4.68;;;2.40;;
72319;SDS011;60269;52.502;16.732;2022-07-05T12:55:09;6.20;;;2.03;;
72319;SDS011;60269;52.502;16.732;2022-07-05T12:59:02;3.53;;;1.50;;
72319;SDS011;60269;52.502;16.732;2022-07-05T13:02:36;5.65;;;1.67;;
72319;SDS011;60269;52.502;16.732;2022-07-05T13:06:12;5.80;;;1.25;;
72319;SDS011;60269;52.502;16.732;2022-07-05T13:09:44;5.47;;;1.55;;
72319;SDS011;60269;52.502;16.732;2022-07-05T13:13:16;3.47;;;1.23;;
72319;SDS011;60269;52.502;16.732;2022-07-05T13:16:51;2.50;;;1.08;;
72319;SDS011;60269;52.502;16.732;2022-07-05T13:20:24;3.83;;;1.17;;
72319;SDS011;60269;52.502;16.732;2022-07-05T13:23:55;5.00;;;1.00;;
72319;SDS011;60269;52.502;16.732;2022-07-05T13:27:27;3.63;;;1.35;;
72319;SDS011;60269;52.502;16.732;2022-07-05T13:31:00;3.93;;;1.57;;
72319;SDS011;60269;52.502;16.732;2022-07-05T13:34:31;16.30;;;2.72;;
72319;SDS011;60269;52.502;16.732;2022-07-05T13:38:03;3.33;;;2.17;;
72319;SDS011;60269;52.502;16.732;2022-07-05T13:41:35;7.13;;;2.47;;
72319;SDS011;60269;52.502;16.732;2022-07-05T13:45:07;8.05;;;2.30;;
72319;SDS011;60269;52.502;16.732;2022-07-05T13:48:40;3.47;;;1.57;;
72319;SDS011;60269;52.502;16.732;2022-07-05T13:52:12;7.78;;;2.03;;
72319;SDS011;60269;52.502;16.732;2022-07-05T13:55:44;5.70;;;2.40;;
72319;SDS011;60269;52.502;16.732;2022-07-05T13:59:16;4.75;;;2.78;;
72319;SDS011;60269;52.502;16.732;2022-07-05T14:02:47;5.67;;;1.93;;
72319;SDS011;60269;52.502;16.732;2022-07-05T14:06:19;6.40;;;1.67;;
72319;SDS011;60269;52.502;16.732;2022-07-05T14:09:51;7.13;;;1.85;;
72319;SDS011;60269;52.502;16.732;2022-07-05T14:13:24;7.38;;;2.00;;
72319;SDS011;60269;52.502;16.732;2022-07-05T14:16:57;4.97;;;1.45;;
72319;SDS011;60269;52.502;16.732;2022-07-05T14:20:29;4.10;;;1.67;;
72319;SDS011;60269;52.502;16.732;2022-07-05T14:24:01;9.23;;;2.07;;
72319;SDS011;60269;52.502;16.732;2022-07-05T14:27:33;6.63;;;1.50;;
72319;SDS011;60269;52.502;16.732;2022-07-05T14:31:05;4.15;;;1.70;;
72319;SDS011;60269;52.502;16.732;2022-07-05T14:34:37;8.45;;;1.02;;
72319;SDS011;60269;52.502;16.732;2022-07-05T14:38:09;3.40;;;1.07;;
72319;SDS011;60269;52.502;16.732;2022-07-05T14:41:40;5.80;;;1.17;;
72319;SDS011;60269;52.502;16.732;2022-07-05T14:45:13;6.15;;;1.27;;
72319;SDS011;60269;52.502;16.732;2022-07-05T14:48:45;4.70;;;1.02;;
72319;SDS011;60269;52.502;16.732;2022-07-05T14:52:17;5.03;;;1.50;;
72319;SDS011;60269;52.502;16.732;2022-07-05T14:55:49;3.10;;;1.00;;
72319;SDS011;60269;52.502;16.732;2022-07-05T14:59:21;6.30;;;1.77;;
72319;SDS011;60269;52.502;16.732;2022-07-05T15:02:52;3.38;;;1.35;;
72319;SDS011;60269;52.502;16.732;2022-07-05T15:06:30;5.22;;;1.75;;
72319;SDS011;60269;52.502;16.732;2022-07-05T15:10:02;3.92;;;1.05;;
72319;SDS011;60269;52.502;16.732;2022-07-05T15:13:36;4.67;;;1.47;;
72319;SDS011;60269;52.502;16.732;2022-07-05T15:17:08;5.23;;;1.53;;
72319;SDS011;60269;52.502;16.732;2022-07-05T15:20:40;3.72;;;1.70;;
72319;SDS011;60269;52.502;16.732;2022-07-05T15:24:12;5.55;;;1.58;;
72319;SDS011;60269;52.502;16.732;2022-07-05T15:27:48;4.30;;;1.67;;
72319;SDS011;60269;52.502;16.732;2022-07-05T15:31:20;7.50;;;1.60;;
72319;SDS011;60269;52.502;16.732;2022-07-05T15:34:53;3.47;;;1.20;;
72319;SDS011;60269;52.502;16.732;2022-07-05T15:38:25;4.93;;;1.65;;
72319;SDS011;60269;52.502;16.732;2022-07-05T15:41:58;3.88;;;1.30;;
72319;SDS011;60269;52.502;16.732;2022-07-05T15:45:32;4.93;;;1.38;;
72319;SDS011;60269;52.502;16.732;2022-07-05T15:49:04;6.33;;;1.20;;
72319;SDS011;60269;52.502;16.732;2022-07-05T15:52:36;4.20;;;1.37;;
72319;SDS011;60269;52.502;16.732;2022-07-05T15:56:08;5.20;;;1.25;;
72319;SDS011;60269;52.502;16.732;2022-07-05T15:59:40;2.67;;;1.00;;
72319;SDS011;60269;52.502;16.732;2022-07-05T16:03:12;5.13;;;2.00;;
72319;SDS011;60269;52.502;16.732;2022-07-05T16:06:44;6.27;;;1.53;;
72319;SDS011;60269;52.502;16.732;2022-07-05T16:10:16;5.80;;;1.47;;
72319;SDS011;60269;52.502;16.732;2022-07-05T16:14:06;4.20;;;1.38;;
72319;SDS011;60269;52.502;16.732;2022-07-05T16:17:37;5.40;;;1.60;;
72319;SDS011;60269;52.502;16.732;2022-07-05T16:21:10;6.10;;;1.88;;
72319;SDS011;60269;52.502;16.732;2022-07-05T16:24:45;3.73;;;1.00;;
72319;SDS011;60269;52.502;16.732;2022-07-05T16:28:17;4.43;;;1.00;;
72319;SDS011;60269;52.502;16.732;2022-07-05T16:31:49;4.25;;;1.00;;
72319;SDS011;60269;52.502;16.732;2022-07-05T16:35:23;6.20;;;1.50;;
72319;SDS011;60269;52.502;16.732;2022-07-05T16:38:56;4.43;;;1.35;;
72319;SDS011;60269;52.502;16.732;2022-07-05T16:42:37;4.00;;;0.87;;
72319;SDS011;60269;52.502;16.732;2022-07-05T16:46:09;5.10;;;0.93;;
72319;SDS011;60269;52.502;16.732;2022-07-05T16:49:43;4.93;;;1.10;;
72319;SDS011;60269;52.502;16.732;2022-07-05T16:53:16;4.28;;;1.55;;
72319;SDS011;60269;52.502;16.732;2022-07-05T16:56:49;4.35;;;1.38;;
72319;SDS011;60269;52.502;16.732;2022-07-05T17:00:28;5.57;;;1.03;;
72319;SDS011;60269;52.502;16.732;2022-07-05T17:04:00;4.23;;;1.03;;
72319;SDS011;60269;52.502;16.732;2022-07-05T17:07:32;6.10;;;1.20;;
72319;SDS011;60269;52.502;16.732;2022-07-05T17:11:05;4.82;;;1.02;;
72319;SDS011;60269;52.502;16.732;2022-07-05T17:14:44;5.93;;;1.20;;
72319;SDS011;60269;52.502;16.732;2022-07-05T17:18:15;3.37;;;1.20;;
72319;SDS011;60269;52.502;16.732;2022-07-05T17:21:47;4.87;;;2.00;;
72319;SDS011;60269;52.502;16.732;2022-07-05T17:25:19;6.57;;;2.17;;
72319;SDS011;60269;52.502;16.732;2022-07-05T17:28:52;3.92;;;1.52;;
72319;SDS011;60269;52.502;16.732;2022-07-05T17:32:25;5.80;;;2.00;;
72319;SDS011;60269;52.502;16.732;2022-07-05T17:35:57;8.00;;;2.03;;
72319;SDS011;60269;52.502;16.732;2022-07-05T17:39:29;4.47;;;1.73;;
72319;SDS011;60269;52.502;16.732;2022-07-05T17:43:01;4.38;;;1.52;;
72319;SDS011;60269;52.502;16.732;2022-07-05T17:46:32;4.18;;;2.00;;
72319;SDS011;60269;52.502;16.732;2022-07-05T17:50:04;5.93;;;1.67;;
72319;SDS011;60269;52.502;16.732;2022-07-05T17:53:56;3.73;;;1.83;;
72319;SDS011;60269;52.502;16.732;2022-07-05T17:57:28;4.67;;;1.53;;
72319;SDS011;60269;52.502;16.732;2022-07-05T18:01:00;3.42;;;1.40;;
72319;SDS011;60269;52.502;16.732;2022-07-05T18:04:32;4.75;;;1.60;;
72319;SDS011;60269;52.502;16.732;2022-07-05T18:08:04;4.32;;;1.33;;
72319;SDS011;60269;52.502;16.732;2022-07-05T18:11:36;4.23;;;1.47;;
72319;SDS011;60269;52.502;16.732;2022-07-05T18:15:08;3.63;;;1.03;;
72319;SDS011;60269;52.502;16.732;2022-07-05T18:18:41;4.45;;;1.73;;
72319;SDS011;60269;52.502;16.732;2022-07-05T18:22:13;7.28;;;1.70;;
72319;SDS011;60269;52.502;16.732;2022-07-05T18:25:45;5.53;;;1.50;;
72319;SDS011;60269;52.502;16.732;2022-07-05T18:29:17;4.83;;;1.60;;
72319;SDS011;60269;52.502;16.732;2022-07-05T18:32:49;5.33;;;1.20;;
72319;SDS011;60269;52.502;16.732;2022-07-05T18:36:21;5.80;;;1.30;;
72319;SDS011;60269;52.502;16.732;2022-07-05T18:39:53;3.85;;;1.30;;
72319;SDS011;60269;52.502;16.732;2022-07-05T18:43:25;5.25;;;1.00;;
72319;SDS011;60269;52.502;16.732;2022-07-05T18:46:56;4.40;;;1.23;;
72319;SDS011;60269;52.502;16.732;2022-07-05T18:50:28;4.30;;;1.40;;
72319;SDS011;60269;52.502;16.732;2022-07-05T18:54:00;3.58;;;1.00;;
72319;SDS011;60269;52.502;16.732;2022-07-05T18:57:31;3.35;;;1.10;;
72319;SDS011;60269;52.502;16.732;2022-07-05T19:01:03;3.60;;;0.93;;
72319;SDS011;60269;52.502;16.732;2022-07-05T19:04:35;4.37;;;0.87;;
72319;SDS011;60269;52.502;16.732;2022-07-05T19:08:07;3.53;;;0.83;;
72319;SDS011;60269;52.502;16.732;2022-07-05T19:11:58;4.70;;;1.10;;
72319;SDS011;60269;52.502;16.732;2022-07-05T19:15:48;4.20;;;0.93;;
72319;SDS011;60269;52.502;16.732;2022-07-05T19:19:20;3.88;;;1.15;;
72319;SDS011;60269;52.502;16.732;2022-07-05T19:22:53;4.57;;;1.23;;
72319;SDS011;60269;52.502;16.732;2022-07-05T19:26:25;5.47;;;1.00;;
72319;SDS011;60269;52.502;16.732;2022-07-05T19:29:57;5.07;;;0.90;;
72319;SDS011;60269;52.502;16.732;2022-07-05T19:33:28;4.70;;;0.70;;
72319;SDS011;60269;52.502;16.732;2022-07-05T19:37:00;4.05;;;0.80;;
72319;SDS011;60269;52.502;16.732;2022-07-05T19:40:33;5.73;;;1.10;;
72319;SDS011;60269;52.502;16.732;2022-07-05T19:44:08;6.53;;;1.00;;
72319;SDS011;60269;52.502;16.732;2022-07-05T19:47:39;7.47;;;1.40;;
72319;SDS011;60269;52.502;16.732;2022-07-05T19:51:11;7.95;;;1.17;;
72319;SDS011;60269;52.502;16.732;2022-07-05T19:54:43;6.32;;;0.93;;
72319;SDS011;60269;52.502;16.732;2022-07-05T19:58:15;5.90;;;1.00;;
72319;SDS011;60269;52.502;16.732;2022-07-05T20:01:47;9.03;;;1.30;;
72319;SDS011;60269;52.502;16.732;2022-07-05T20:05:19;5.53;;;1.23;;
72319;SDS011;60269;52.502;16.732;2022-07-05T20:08:51;11.07;;;1.23;;
72319;SDS011;60269;52.502;16.732;2022-07-05T20:12:23;5.78;;;1.00;;
72319;SDS011;60269;52.502;16.732;2022-07-05T20:15:55;5.03;;;0.90;;
72319;SDS011;60269;52.502;16.732;2022-07-05T20:19:27;9.50;;;1.50;;
72319;SDS011;60269;52.502;16.732;2022-07-05T20:22:58;5.20;;;1.38;;
72319;SDS011;60269;52.502;16.732;2022-07-05T20:26:30;5.63;;;1.40;;
72319;SDS011;60269;52.502;16.732;2022-07-05T20:30:02;9.00;;;1.33;;
72319;SDS011;60269;52.502;16.732;2022-07-05T20:33:35;9.47;;;1.60;;
72319;SDS011;60269;52.502;16.732;2022-07-05T20:37:07;10.70;;;1.50;;
72319;SDS011;60269;52.502;16.732;2022-07-05T20:40:40;6.40;;;1.50;;
72319;SDS011;60269;52.502;16.732;2022-07-05T20:44:13;7.53;;;1.27;;
72319;SDS011;60269;52.502;16.732;2022-07-05T20:47:44;4.47;;;1.15;;
72319;SDS011;60269;52.502;16.732;2022-07-05T20:51:16;4.10;;;1.40;;
72319;SDS011;60269;52.502;16.732;2022-07-05T20:54:48;4.97;;;1.23;;
72319;SDS011;60269;52.502;16.732;2022-07-05T20:58:21;3.70;;;1.05;;
72319;SDS011;60269;52.502;16.732;2022-07-05T21:01:54;6.63;;;1.58;;
72319;SDS011;60269;52.502;16.732;2022-07-05T21:05:26;3.92;;;1.20;;
72319;SDS011;60269;52.502;16.732;2022-07-05T21:08:58;5.47;;;1.50;;
72319;SDS011;60269;52.502;16.732;2022-07-05T21:12:30;5.00;;;1.40;;